M.v. Eagle — WCX5125 — position and weather

sailwx.info

Track history (hours):
 
Tides and Currents Weather Stations Pressure Air Temp Water Temp Dewpoint Dewpoint Depression Visibility Wind Speed Wind Dir Waves Ship Positions

M.v. Eagle

Owner: WOODS HOLE, MARTHA'S VINEYARD AND NANTUCKET STEAMSHIP AUTHORITY, WOODS HOLE, MA. More information available from US FCC via Universal Licensing System and Coast Guard Vessel Documentation Center.

Last reported at 2017-Nov-19 20:39 UTC. Time now 2017-Nov-22 02:02 UTC.
Position N 41°31' W 070°14'.

Length 66 m; draft 3.2 m.

Type: Ship. MMSI: 367174060.

Date/timePositionNaut miles runAvg speedWind from/ knotsBaromVisibWave heightAir tempDewpointWater temp
2017-Nov-19 20:39N 41°31' W 070°14'214.0
2017-Nov-19 20:31N 41°33' W 070°16'610.8
2017-Nov-19 20:00N 41°38' W 070°16'1 1.8
2017-Nov-19 19:30N 41°39' W 070°17'2 3.2
2017-Nov-19 19:00N 41°37' W 070°17'6 1.6
2017-Nov-19 15:04N 41°31' W 070°15'113.2
2017-Nov-19 15:01N 41°32' W 070°15'611.2
2017-Nov-19 14:31N 41°37' W 070°17'2 3.2
2017-Nov-19 14:01N 41°39' W 070°17'0 0.3
2017-Nov-19 13:30N 41°39' W 070°17'5 9.3
2017-Nov-19 13:01N 41°34' W 070°16'3 0.1
2017-Nov-18 01:52N 41°32' W 070°15'513.3
2017-Nov-18 01:30N 41°36' W 070°17'3 5.7
2017-Nov-18 01:01N 41°39' W 070°17'1 2.5
2017-Nov-18 00:30N 41°38' W 070°16'510.4
2017-Nov-18 00:00N 41°33' W 070°15'2 0.7
2017-Nov-17 20:44N 41°30' W 070°14'313.4
2017-Nov-17 20:30N 41°33' W 070°16'5 9.7
2017-Nov-17 20:00N 41°38' W 070°16'  
Track history (hours):
 
Tides and Currents Weather Stations Pressure Air Temp Water Temp Dewpoint Dewpoint Depression Visibility Wind Speed Wind Dir Waves Ship Positions

M.v. Eagle

Owner: WOODS HOLE, MARTHA'S VINEYARD AND NANTUCKET STEAMSHIP AUTHORITY, WOODS HOLE, MA. More information available from US FCC via Universal Licensing System and Coast Guard Vessel Documentation Center.

Last reported at 2017-Nov-19 20:39 UTC. Time now 2017-Nov-22 02:02 UTC.
Position N 41°31' W 070°14'.

Length 66 m; draft 3.2 m.

Type: Ship. MMSI: 367174060.

Date/timePositionNaut miles runAvg speedWind from/ knotsBaromVisibWave heightAir tempDewpointWater temp
2017-Nov-19 20:39N 41°31' W 070°14'214.0
2017-Nov-19 20:31N 41°33' W 070°16'610.8
2017-Nov-19 20:00N 41°38' W 070°16'1 1.8
2017-Nov-19 19:30N 41°39' W 070°17'2 3.2
2017-Nov-19 19:00N 41°37' W 070°17'6 1.6
2017-Nov-19 15:04N 41°31' W 070°15'113.2
2017-Nov-19 15:01N 41°32' W 070°15'611.2
2017-Nov-19 14:31N 41°37' W 070°17'2 3.2
2017-Nov-19 14:01N 41°39' W 070°17'0 0.3
2017-Nov-19 13:30N 41°39' W 070°17'5 9.3
2017-Nov-19 13:01N 41°34' W 070°16'3 0.1
2017-Nov-18 01:52N 41°32' W 070°15'513.3
2017-Nov-18 01:30N 41°36' W 070°17'3 5.7
2017-Nov-18 01:01N 41°39' W 070°17'1 2.5
2017-Nov-18 00:30N 41°38' W 070°16'510.4
2017-Nov-18 00:00N 41°33' W 070°15'2 0.7
2017-Nov-17 20:44N 41°30' W 070°14'313.4
2017-Nov-17 20:30N 41°33' W 070°16'5 9.7
2017-Nov-17 20:00N 41°38' W 070°16'  

Dump ship's entire track history